Time;durP1;ratioP1;P1;durP2;ratioP2;P2;SDS_P1;SDS_P2;PMS_P1;PMS_P2;Temp;Humidity;BMP_temperature;BMP_pressure;BME280_temperature;BME280_humidity;BME280_pressure;Samples;Min_cycle;Max_cycle;Signal;HPM_P1;HPM_P2
2022/07/20 00:01:30;;;;;;;8.57;6.38;;;;;;;24.42;43.07;101456.94;5008859;28;20030;-72
2022/07/20 00:03:55;;;;;;;9.40;5.82;;;;;;;24.31;42.97;101454.91;5028324;28;20071;-72
2022/07/20 00:06:20;;;;;;;10.75;6.28;;;;;;;24.24;43.60;101454.19;5027966;28;20028;-72
2022/07/20 00:11:30;;;;;;;12.85;6.65;;;;;;;23.94;44.38;101443.97;5029079;28;20021;-72
2022/07/20 00:13:58;;;;;;;13.32;6.75;;;;;;;23.93;43.80;101453.34;5028302;28;20495;-73
2022/07/20 00:16:26;;;;;;;11.95;6.15;;;;;;;23.85;44.53;101445.34;5011818;28;20033;-72
2022/07/20 00:18:51;;;;;;;15.27;6.32;;;;;;;23.88;44.34;101450.41;5028823;28;20051;-72
2022/07/20 00:21:18;;;;;;;14.85;6.60;;;;;;;23.87;44.01;101443.19;5011537;28;20026;-72
2022/07/20 00:23:43;;;;;;;12.95;5.70;;;;;;;23.79;44.45;101441.56;5028156;28;20026;-72
2022/07/20 00:26:09;;;;;;;15.60;6.43;;;;;;;23.72;44.01;101434.44;5012059;28;20025;-74
2022/07/20 00:28:35;;;;;;;9.75;6.30;;;;;;;23.71;44.51;101446.59;5003505;28;20026;-72
2022/07/20 00:31:00;;;;;;;11.13;5.78;;;;;;;23.63;44.51;101452.44;5008039;28;20032;-72
2022/07/20 00:33:26;;;;;;;12.20;6.65;;;;;;;23.72;44.48;101439.97;4992057;28;20033;-73
2022/07/20 00:35:51;;;;;;;13.73;6.13;;;;;;;23.69;44.49;101448.75;5008246;28;20030;-72
2022/07/20 00:38:17;;;;;;;12.38;6.18;;;;;;;23.70;44.12;101453.19;4991689;28;20396;-73
2022/07/20 00:40:42;;;;;;;10.05;5.57;;;;;;;23.76;44.44;101452.28;5009292;28;20075;-73
2022/07/20 00:43:07;;;;;;;11.50;5.88;;;;;;;23.81;44.69;101446.91;4991909;28;20062;-73
2022/07/20 00:45:33;;;;;;;11.27;5.95;;;;;;;23.64;44.89;101443.91;4992014;28;20033;-72
2022/07/20 00:47:59;;;;;;;14.02;6.22;;;;;;;23.64;45.05;101440.28;4992228;28;20021;-73
2022/07/20 00:50:25;;;;;;;10.40;6.22;;;;;;;23.63;45.08;101444.13;4991861;28;20021;-73
2022/07/20 00:52:50;;;;;;;13.05;5.95;;;;;;;23.61;44.92;101437.97;4992419;28;20037;-72
2022/07/20 00:55:16;;;;;;;19.83;6.50;;;;;;;23.40;45.53;101442.84;5014560;28;20021;-73
2022/07/20 00:57:42;;;;;;;15.90;6.72;;;;;;;23.46;44.73;101450.22;5007276;28;20037;-73
2022/07/20 01:00:08;;;;;;;13.27;6.30;;;;;;;23.36;45.13;101438.88;5028174;28;20027;-73
2022/07/20 01:02:34;;;;;;;10.90;6.13;;;;;;;23.43;45.47;101436.88;5011274;28;20026;-72
2022/07/20 01:04:59;;;;;;;9.73;5.85;;;;;;;23.48;45.02;101433.44;5028020;28;20036;-73
2022/07/20 01:07:25;;;;;;;15.50;6.15;;;;;;;23.56;44.30;101431.19;5028148;28;20021;-72
2022/07/20 01:09:51;;;;;;;12.68;6.47;;;;;;;23.46;45.11;101430.88;5027469;28;20080;-73
2022/07/20 01:12:16;;;;;;;9.63;6.60;;;;;;;23.36;45.23;101430.59;5027953;28;20071;-72
2022/07/20 01:14:42;;;;;;;12.90;6.43;;;;;;;23.54;45.06;101425.06;5027713;28;20504;-73
2022/07/20 01:17:11;;;;;;;11.13;6.03;;;;;;;23.38;45.12;101428.44;5027573;28;20017;-73
2022/07/20 01:19:37;;;;;;;10.20;6.38;;;;;;;23.51;44.68;101433.81;5030118;28;20479;-73
2022/07/20 01:22:03;;;;;;;9.45;6.68;;;;;;;23.31;45.09;101422.13;5030623;28;20029;-73
2022/07/20 01:24:28;;;;;;;13.38;6.93;;;;;;;23.29;45.90;101429.81;5031262;28;20045;-73
2022/07/20 01:26:54;;;;;;;12.27;6.45;;;;;;;23.24;45.21;101424.13;5006672;28;20448;-73
2022/07/20 01:29:21;;;;;;;12.05;6.32;;;;;;;23.07;46.07;101423.84;5015766;28;20025;-73
2022/07/20 01:31:46;;;;;;;38.53;6.22;;;;;;;23.04;46.08;101416.03;5014795;28;20037;-72
2022/07/20 01:34:12;;;;;;;9.48;6.15;;;;;;;23.09;45.80;101418.13;5015001;28;20021;-72
2022/07/20 01:36:37;;;;;;;10.43;6.47;;;;;;;23.11;46.03;101410.44;5014913;28;20029;-72
2022/07/20 01:39:03;;;;;;;13.88;7.10;;;;;;;23.16;45.73;101407.84;5015060;28;20030;-72
2022/07/20 01:41:28;;;;;;;10.30;5.95;;;;;;;23.20;45.54;101409.91;5014677;28;20025;-72
2022/07/20 01:43:54;;;;;;;12.35;5.93;;;;;;;23.05;46.49;101405.84;5014977;28;20018;-72
2022/07/20 01:46:19;;;;;;;10.55;6.22;;;;;;;23.06;46.00;101402.84;5014606;28;20017;-72
2022/07/20 01:48:45;;;;;;;13.50;7.03;;;;;;;22.97;46.93;101398.69;5014221;28;20024;-72
2022/07/20 01:51:10;;;;;;;16.83;6.40;;;;;;;22.92;46.73;101402.13;5031847;28;20036;-73
2022/07/20 01:53:35;;;;;;;13.70;6.20;;;;;;;23.02;46.08;101402.47;5014529;28;20029;-73
2022/07/20 01:56:01;;;;;;;12.20;6.07;;;;;;;22.93;46.43;101398.28;5014194;28;20021;-73
2022/07/20 01:58:27;;;;;;;14.70;5.72;;;;;;;23.01;45.94;101395.22;5022311;28;20033;-72
2022/07/20 02:00:52;;;;;;;11.15;6.38;;;;;;;22.86;46.23;101392.00;5013975;28;20029;-73
2022/07/20 02:03:18;;;;;;;15.02;6.60;;;;;;;22.82;47.05;101389.88;5013831;28;20021;-73
2022/07/20 02:05:43;;;;;;;14.57;5.70;;;;;;;22.64;47.64;101387.94;5013990;28;20511;-73
2022/07/20 02:08:09;;;;;;;11.95;6.00;;;;;;;22.63;47.39;101386.25;5014399;28;20072;-72
2022/07/20 02:10:35;;;;;;;16.10;6.47;;;;;;;22.58;47.25;101394.34;5029654;28;20033;-72
2022/07/20 02:13:00;;;;;;;12.93;6.82;;;;;;;22.66;47.40;101388.53;5030327;28;20021;-72
2022/07/20 02:18:12;;;;;;;19.63;6.07;;;;;;;22.45;47.76;101379.59;5030170;28;20025;-72
2022/07/20 02:20:37;;;;;;;15.45;6.53;;;;;;;22.48;48.14;101376.34;5029172;28;20056;-72
2022/07/20 02:23:04;;;;;;;15.52;6.03;;;;;;;22.56;47.96;101375.25;5029324;28;20049;-73
2022/07/20 02:25:30;;;;;;;13.95;6.07;;;;;;;22.54;48.15;101385.66;5029297;28;20022;-73
2022/07/20 02:27:55;;;;;;;9.18;6.20;;;;;;;22.64;47.39;101387.94;5020841;28;20114;-72
2022/07/20 02:30:21;;;;;;;10.90;6.03;;;;;;;22.68;47.53;101375.34;5028227;28;20029;-73
2022/07/20 02:32:46;;;;;;;13.18;5.85;;;;;;;22.69;47.07;101375.13;5030115;28;20048;-73
2022/07/20 02:35:12;;;;;;;12.73;6.03;;;;;;;22.59;47.80;101379.47;5012682;28;20119;-73
2022/07/20 02:37:37;;;;;;;9.05;6.13;;;;;;;22.44;48.37;101383.41;5013049;28;20022;-73
2022/07/20 02:40:04;;;;;;;14.40;6.15;;;;;;;22.40;48.41;101382.16;5012721;28;20049;-73
2022/07/20 02:42:29;;;;;;;13.27;6.93;;;;;;;22.46;48.06;101392.31;5012959;28;20121;-72
2022/07/20 02:44:54;;;;;;;19.48;6.38;;;;;;;22.35;48.44;101390.25;5013002;28;20112;-73
2022/07/20 02:47:20;;;;;;;11.57;6.57;;;;;;;22.45;48.40;101385.09;5012062;28;20418;-73
2022/07/20 02:49:45;;;;;;;16.75;5.93;;;;;;;22.55;47.66;101367.19;5012507;28;20025;-73
2022/07/20 02:52:11;;;;;;;10.30;6.28;;;;;;;22.46;48.37;101384.03;5012430;28;20075;-73
2022/07/20 02:54:36;;;;;;;23.42;6.43;;;;;;;22.34;49.09;101383.06;5012334;28;20128;-72
2022/07/20 02:57:01;;;;;;;8.93;6.45;;;;;;;22.39;48.15;101377.72;5012769;28;20057;-72
2022/07/20 02:59:27;;;;;;;15.05;6.85;;;;;;;22.35;48.63;101379.22;5030191;28;20021;-72
2022/07/20 03:01:52;;;;;;;14.73;6.57;;;;;;;22.43;48.46;101376.22;5011327;28;20029;-73
2022/07/20 03:04:17;;;;;;;11.80;6.90;;;;;;;22.44;48.30;101377.91;5030052;28;20104;-73
2022/07/20 03:06:43;;;;;;;15.52;5.95;;;;;;;22.31;48.75;101371.63;5028611;28;20025;-73
2022/07/20 03:09:08;;;;;;;9.25;6.13;;;;;;;22.30;48.44;101376.31;5012008;28;20476;-73
2022/07/20 03:11:34;;;;;;;12.88;6.43;;;;;;;22.33;48.16;101375.84;5011204;28;20017;-73
2022/07/20 03:13:59;;;;;;;16.35;6.75;;;;;;;22.26;48.95;101380.56;5028552;28;20049;-73
2022/07/20 03:16:24;;;;;;;10.75;6.55;;;;;;;22.13;48.94;101367.72;5027948;28;20112;-73
2022/07/20 03:18:50;;;;;;;12.70;6.60;;;;;;;22.16;49.46;101374.69;5011062;28;20314;-73
2022/07/20 03:21:15;;;;;;;12.70;6.50;;;;;;;22.13;49.38;101364.13;5011468;28;20021;-73
2022/07/20 03:23:40;;;;;;;14.18;6.55;;;;;;;21.97;50.22;101370.97;5011451;28;20061;-73
2022/07/20 03:26:06;;;;;;;16.27;6.60;;;;;;;22.11;49.48;101366.25;5022954;28;20022;-73
2022/07/20 03:28:31;;;;;;;11.40;6.72;;;;;;;21.97;49.88;101370.13;5016215;28;20109;-73
2022/07/20 03:30:56;;;;;;;11.48;6.97;;;;;;;22.06;49.75;101368.81;4991126;28;20075;-73
2022/07/20 03:33:22;;;;;;;13.10;6.75;;;;;;;21.98;49.80;101367.16;5007831;28;20663;-73
2022/07/20 03:35:47;;;;;;;16.40;6.28;;;;;;;21.91;50.23;101369.97;5008066;28;20091;-73
2022/07/20 03:38:13;;;;;;;16.95;6.90;;;;;;;22.05;49.14;101361.59;5009053;28;20026;-73
2022/07/20 03:40:38;;;;;;;17.83;6.55;;;;;;;21.89;49.74;101358.28;4991306;28;20084;-73
2022/07/20 03:43:03;;;;;;;13.10;6.72;;;;;;;21.91;50.21;101371.88;4991831;28;20034;-73
2022/07/20 03:45:29;;;;;;;15.60;7.07;;;;;;;21.94;49.80;101366.75;5008485;28;20180;-73
2022/07/20 03:47:55;;;;;;;20.00;6.57;;;;;;;21.92;49.70;101368.88;4992463;28;20111;-73
2022/07/20 03:50:21;;;;;;;12.13;6.57;;;;;;;21.78;50.75;101359.00;4992088;28;20033;-73
2022/07/20 03:52:46;;;;;;;10.60;6.85;;;;;;;21.82;50.86;101357.47;4992603;28;20018;-72
2022/07/20 03:55:11;;;;;;;13.77;6.90;;;;;;;21.95;49.82;101362.91;4992144;28;20057;-73
2022/07/20 03:57:37;;;;;;;8.77;6.10;;;;;;;22.12;48.80;101367.94;5020804;28;20022;-72
2022/07/20 04:00:04;;;;;;;10.00;6.00;;;;;;;22.01;49.99;101365.84;5007917;28;20028;-72
2022/07/20 04:02:30;;;;;;;15.07;7.13;;;;;;;22.02;49.62;101373.06;5015998;28;20085;-72
2022/07/20 04:04:55;;;;;;;16.88;6.55;;;;;;;21.92;50.23;101366.13;5028044;28;20109;-73
2022/07/20 04:07:20;;;;;;;11.35;7.18;;;;;;;21.86;50.25;101369.78;5028209;28;20120;-73
2022/07/20 04:09:48;;;;;;;15.27;6.22;;;;;;;22.11;49.50;101378.13;5011395;28;20055;-72
2022/07/20 04:12:20;;;;;;;20.35;7.65;;;;;;;22.06;50.18;101368.81;5028062;28;20093;-72
2022/07/20 04:14:46;;;;;;;;;;;;;;;22.14;49.70;101377.69;5011871;28;20027;-68
2022/07/20 04:17:12;;;;;;;15.93;7.38;;;;;;;22.11;50.08;101382.81;5012094;28;19944;-70
2022/07/20 04:19:38;;;;;;;16.27;7.57;;;;;;;22.22;49.52;101384.84;5026625;28;20045;-70
2022/07/20 04:22:04;;;;;;;13.88;6.78;;;;;;;22.29;49.41;101379.28;5044736;28;20040;-69
2022/07/20 04:24:29;;;;;;;15.93;7.30;;;;;;;22.33;49.13;101381.38;5044715;28;20021;-70
2022/07/20 04:26:54;;;;;;;16.63;6.32;;;;;;;22.34;49.69;101376.69;5033568;28;20064;-70
2022/07/20 04:29:23;;;;;;;16.42;6.55;;;;;;;22.37;49.32;101379.88;5007990;28;20045;-70
2022/07/20 04:31:49;;;;;;;9.30;6.22;;;;;;;22.48;49.31;101376.34;5008210;28;20060;-71
2022/07/20 04:34:15;;;;;;;11.80;6.30;;;;;;;22.52;49.27;101378.69;5008284;28;20034;-69
2022/07/20 04:36:40;;;;;;;18.45;7.05;;;;;;;22.47;49.89;101380.19;5008044;28;20037;-71
2022/07/20 04:39:06;;;;;;;15.70;6.15;;;;;;;22.41;49.98;101378.31;5008068;28;20037;-72
2022/07/20 04:41:31;;;;;;;8.80;6.50;;;;;;;22.34;50.72;101373.94;5008056;28;20068;-72
2022/07/20 04:43:57;;;;;;;14.68;6.30;;;;;;;22.34;50.18;101372.00;5008925;28;20018;-72
2022/07/20 04:46:23;;;;;;;11.80;7.22;;;;;;;22.46;49.96;101381.25;5025558;28;20029;-73
2022/07/20 04:48:48;;;;;;;9.77;6.43;;;;;;;22.57;49.88;101370.56;5011111;28;20094;-72
2022/07/20 04:51:14;;;;;;;9.52;6.90;;;;;;;22.64;49.67;101374.97;5010881;28;20426;-73
2022/07/20 04:53:39;;;;;;;9.75;6.38;;;;;;;22.63;49.06;101375.19;5029365;28;20026;-73
2022/07/20 04:56:05;;;;;;;12.13;6.13;;;;;;;22.81;49.00;101371.63;5028221;28;20025;-73
2022/07/20 04:58:31;;;;;;;14.05;6.30;;;;;;;22.95;49.01;101375.97;5027495;28;20041;-72
2022/07/20 05:00:57;;;;;;;13.18;6.68;;;;;;;22.85;49.14;101373.69;5031301;28;20017;-73
2022/07/20 05:03:22;;;;;;;10.68;6.85;;;;;;;23.06;48.58;101379.91;5014922;28;20013;-73
2022/07/20 05:05:48;;;;;;;15.77;6.82;;;;;;;23.26;47.71;101366.72;5031245;28;20056;-73
2022/07/20 05:08:13;;;;;;;14.88;6.45;;;;;;;23.17;48.68;101365.34;5014564;28;20033;-74
2022/07/20 05:10:39;;;;;;;31.80;7.03;;;;;;;23.06;49.11;101368.84;5031347;28;20032;-72
2022/07/20 05:13:04;;;;;;;12.75;6.70;;;;;;;23.08;49.23;101366.69;5030891;28;20021;-73
2022/07/20 05:15:30;;;;;;;11.57;6.60;;;;;;;23.13;48.59;101362.16;5011525;28;20021;-73
2022/07/20 05:17:55;;;;;;;9.93;6.45;;;;;;;23.18;49.64;101355.97;5030350;28;20032;-73
2022/07/20 05:20:20;;;;;;;12.18;6.07;;;;;;;23.21;48.56;101361.03;5012680;28;20029;-73
2022/07/20 05:22:46;;;;;;;14.90;6.80;;;;;;;23.39;48.78;101363.78;5030726;28;20029;-73
2022/07/20 05:25:11;;;;;;;11.80;6.43;;;;;;;23.54;48.02;101355.97;5030773;28;20455;-73
2022/07/20 05:27:37;;;;;;;19.67;7.50;;;;;;;23.58;48.17;101355.47;5030321;28;20391;-73
2022/07/20 05:30:04;;;;;;;15.05;6.57;;;;;;;23.64;47.83;101365.66;5013911;28;20097;-73
2022/07/20 05:32:29;;;;;;;16.02;5.88;;;;;;;23.73;47.17;101358.69;5013996;28;20033;-73
2022/07/20 05:34:55;;;;;;;14.75;6.38;;;;;;;23.74;46.91;101354.88;5030678;28;20029;-73
2022/07/20 05:37:20;;;;;;;13.88;7.03;;;;;;;23.89;46.71;101360.81;5030207;28;20018;-72
2022/07/20 05:39:46;;;;;;;14.80;6.50;;;;;;;23.95;46.54;101362.66;5029833;28;20022;-72
2022/07/20 05:42:11;;;;;;;18.67;6.28;;;;;;;24.03;45.91;101354.00;5030303;28;20014;-72
2022/07/20 05:44:37;;;;;;;12.00;6.18;;;;;;;24.05;45.74;101360.16;5014075;28;20494;-71
2022/07/20 05:47:06;;;;;;;14.10;5.85;;;;;;;24.32;45.56;101365.28;5013859;28;20416;-71
2022/07/20 05:49:32;;;;;;;9.80;6.55;;;;;;;24.18;46.10;101366.56;5013968;28;20021;-71
2022/07/20 05:51:58;;;;;;;15.75;6.90;;;;;;;24.40;45.85;101364.97;5013882;28;20116;-71
2022/07/20 05:54:23;;;;;;;13.35;6.25;;;;;;;24.54;45.39;101369.22;5030209;28;20101;-72
2022/07/20 05:56:49;;;;;;;12.40;6.53;;;;;;;24.56;45.11;101353.19;5029907;28;20037;-71
2022/07/20 05:59:14;;;;;;;11.43;5.72;;;;;;;24.65;45.05;101362.00;5014218;28;20029;-72
2022/07/20 06:01:43;;;;;;;15.68;6.72;;;;;;;24.74;44.79;101354.19;5013504;28;20013;-72
2022/07/20 06:04:10;;;;;;;10.48;6.03;;;;;;;24.69;45.04;101356.81;5029017;28;20036;-72
2022/07/20 06:06:35;;;;;;;15.50;6.07;;;;;;;24.88;44.28;101366.69;5013738;28;20112;-72
2022/07/20 06:09:00;;;;;;;16.00;5.82;;;;;;;24.82;44.79;101356.56;5013686;28;20129;-72
2022/07/20 06:11:26;;;;;;;15.82;6.20;;;;;;;24.88;44.50;101355.59;5029927;28;20128;-72
2022/07/20 06:13:51;;;;;;;23.55;6.38;;;;;;;24.87;44.20;101351.16;5028018;28;20013;-72
2022/07/20 06:16:17;;;;;;;19.88;6.30;;;;;;;25.08;43.83;101356.09;5030032;28;20024;-72
2022/07/20 06:18:42;;;;;;;17.88;5.90;;;;;;;25.30;43.89;101352.69;5013481;28;20028;-72
2022/07/20 06:21:07;;;;;;;22.73;6.50;;;;;;;25.19;43.68;101356.34;5013647;28;20013;-72
2022/07/20 06:23:33;;;;;;;18.25;6.97;;;;;;;25.34;43.46;101359.44;5029872;28;20021;-73
2022/07/20 06:25:58;;;;;;;20.17;6.78;;;;;;;25.48;43.10;101355.28;5029720;28;20121;-72
2022/07/20 06:28:24;;;;;;;44.20;7.38;;;;;;;25.64;42.76;101360.09;5029545;28;20034;-73
2022/07/20 06:30:50;;;;;;;14.25;6.07;;;;;;;25.71;43.31;101360.78;5012930;28;20037;-72
2022/07/20 06:33:15;;;;;;;11.93;5.82;;;;;;;25.88;42.13;101365.56;5013384;28;20018;-72
2022/07/20 06:35:40;;;;;;;19.58;6.50;;;;;;;25.82;41.98;101367.41;5013833;28;20091;-72
2022/07/20 06:38:06;;;;;;;24.58;6.28;;;;;;;26.05;42.22;101377.53;5030313;28;20071;-70
2022/07/20 06:40:31;;;;;;;25.20;6.40;;;;;;;25.98;41.91;101368.53;5013488;28;20124;-72
2022/07/20 06:42:57;;;;;;;18.67;6.03;;;;;;;26.10;40.99;101374.03;5030211;28;20155;-72
2022/07/20 06:45:22;;;;;;;18.25;5.47;;;;;;;26.08;41.09;101377.06;5029968;28;20017;-72
2022/07/20 06:47:49;;;;;;;16.02;5.88;;;;;;;26.22;40.03;101377.59;5030313;28;20028;-72
2022/07/20 06:50:15;;;;;;;11.23;5.97;;;;;;;26.39;39.84;101374.81;5030215;28;20057;-72
2022/07/20 06:52:40;;;;;;;20.75;5.97;;;;;;;26.34;39.39;101374.72;5013543;28;20514;-72
2022/07/20 06:55:06;;;;;;;15.77;5.53;;;;;;;26.60;39.11;101382.41;5013360;28;20068;-72
2022/07/20 06:57:32;;;;;;;14.18;6.03;;;;;;;26.79;38.72;101388.56;5029666;28;20056;-72
2022/07/20 06:59:57;;;;;;;19.20;6.05;;;;;;;26.95;38.20;101392.44;5029334;28;20075;-72
2022/07/20 07:02:23;;;;;;;21.27;5.43;;;;;;;27.03;37.66;101383.66;5012830;28;20041;-72
2022/07/20 07:04:48;;;;;;;13.27;5.55;;;;;;;27.04;37.77;101385.34;5029361;28;20039;-72
2022/07/20 07:07:14;;;;;;;19.38;6.85;;;;;;;27.17;37.51;101385.00;5013470;28;20028;-72
2022/07/20 07:09:39;;;;;;;15.85;5.63;;;;;;;27.31;36.88;101377.13;5029873;28;20053;-72
2022/07/20 07:12:05;;;;;;;12.57;5.68;;;;;;;27.28;36.44;101372.09;5013330;28;20021;-72
2022/07/20 07:14:30;;;;;;;19.77;6.18;;;;;;;27.39;36.86;101376.69;5029690;28;20480;-71
2022/07/20 07:16:56;;;;;;;17.35;5.88;;;;;;;27.51;37.06;101373.75;5012535;28;20017;-72
2022/07/20 07:19:21;;;;;;;9.60;5.57;;;;;;;27.72;36.59;101370.19;5029551;28;20021;-72
2022/07/20 07:21:46;;;;;;;19.25;5.35;;;;;;;27.81;36.79;101368.59;5029619;28;20029;-72
2022/07/20 07:24:12;;;;;;;11.27;5.25;;;;;;;28.02;36.89;101368.81;4993347;28;20022;-71
2022/07/20 07:26:37;;;;;;;18.45;5.57;;;;;;;28.28;35.75;101367.97;4992884;28;20049;-71
2022/07/20 07:29:03;;;;;;;14.05;5.60;;;;;;;28.24;35.17;101366.84;4991086;28;20057;-73
2022/07/20 07:31:28;;;;;;;17.02;5.80;;;;;;;28.53;35.19;101364.59;4990164;28;20041;-72
2022/07/20 07:33:54;;;;;;;18.65;5.32;;;;;;;28.71;35.29;101368.94;4990472;28;20057;-72
2022/07/20 07:36:20;;;;;;;18.45;6.30;;;;;;;28.69;34.49;101373.94;5006639;28;20061;-72
2022/07/20 07:38:45;;;;;;;13.30;5.10;;;;;;;28.65;35.02;101373.63;4991739;28;20022;-72
2022/07/20 07:41:11;;;;;;;7.13;4.80;;;;;;;29.04;34.36;101364.16;4993079;28;20029;-73
2022/07/20 07:43:37;;;;;;;10.20;4.97;;;;;;;29.19;34.10;101372.59;4992892;28;20072;-70
2022/07/20 07:46:02;;;;;;;18.10;4.93;;;;;;;29.43;34.00;101361.84;4992595;28;20124;-70
2022/07/20 07:48:28;;;;;;;11.25;5.07;;;;;;;29.70;33.42;101356.13;4992714;28;20022;-71
2022/07/20 07:50:53;;;;;;;12.65;5.32;;;;;;;29.82;32.47;101365.09;5009322;28;20026;-71
2022/07/20 07:53:18;;;;;;;19.85;6.22;;;;;;;30.08;32.63;101367.94;4992679;28;20022;-72
2022/07/20 07:55:44;;;;;;;15.65;5.85;;;;;;;30.36;32.39;101364.63;4992603;28;20022;-72
2022/07/20 07:58:11;;;;;;;8.93;4.82;;;;;;;30.16;32.28;101359.03;5008576;28;20372;-71
2022/07/20 08:00:38;;;;;;;15.75;5.30;;;;;;;30.11;31.89;101361.81;4992309;28;20022;-71
2022/07/20 08:03:04;;;;;;;17.33;5.32;;;;;;;30.30;32.21;101365.75;4991577;28;20033;-72
2022/07/20 08:05:31;;;;;;;17.48;5.53;;;;;;;30.53;31.76;101359.63;5009561;28;20097;-72
2022/07/20 08:07:57;;;;;;;17.42;4.80;;;;;;;30.87;31.20;101361.00;5009446;28;20041;-70
2022/07/20 08:10:22;;;;;;;10.75;5.25;;;;;;;31.00;31.20;101366.84;4992077;28;20120;-71
2022/07/20 08:12:48;;;;;;;17.50;5.25;;;;;;;31.10;29.77;101365.13;4993256;28;20092;-72
2022/07/20 08:15:14;;;;;;;18.85;4.95;;;;;;;31.17;29.86;101357.28;5009234;28;20508;-72
2022/07/20 08:17:44;;;;;;;11.25;4.78;;;;;;;31.42;29.00;101365.63;4992845;28;20064;-71
2022/07/20 08:20:10;;;;;;;17.23;4.47;;;;;;;31.29;29.35;101355.88;4993941;28;20030;-72
2022/07/20 08:22:35;;;;;;;19.17;5.05;;;;;;;31.39;29.84;101357.81;4992796;28;20028;-72
2022/07/20 08:25:01;;;;;;;19.08;4.72;;;;;;;31.24;29.58;101355.09;5011274;28;20029;-73
2022/07/20 08:27:26;;;;;;;23.50;5.30;;;;;;;31.02;29.60;101367.41;5010357;28;20084;-72
2022/07/20 08:29:58;;;;;;;12.40;5.40;;;;;;;30.96;30.01;101368.53;4989219;28;20030;-71
2022/07/20 08:32:26;;;;;;;13.35;4.70;;;;;;;31.43;29.20;101361.72;4989843;28;20025;-72
2022/07/20 08:34:52;;;;;;;16.90;5.30;;;;;;;31.55;29.24;101365.00;5002093;28;20022;-70
2022/07/20 08:37:18;;;;;;;21.60;5.15;;;;;;;31.53;29.46;101358.88;5005201;28;20022;-72
2022/07/20 08:39:43;;;;;;;19.60;5.20;;;;;;;31.91;28.89;101359.25;5021610;28;20014;-71
2022/07/20 08:42:10;;;;;;;15.73;5.28;;;;;;;32.10;28.37;101363.06;5004327;28;20153;-69
2022/07/20 08:44:35;;;;;;;7.65;4.70;;;;;;;32.37;28.65;101353.34;5006033;28;20444;-71
2022/07/20 08:47:01;;;;;;;13.48;5.20;;;;;;;32.13;28.27;101359.66;5006241;28;20029;-71
2022/07/20 08:49:28;;;;;;;15.98;5.13;;;;;;;32.14;28.04;101361.31;5024886;28;20029;-70
2022/07/20 08:51:53;;;;;;;12.90;5.05;;;;;;;32.10;28.08;101351.84;5015023;28;20022;-71
2022/07/20 08:54:19;;;;;;;10.05;4.95;;;;;;;32.47;28.39;101358.84;5023489;28;20117;-69
2022/07/20 08:56:44;;;;;;;8.77;4.82;;;;;;;32.94;27.55;101357.34;5008787;28;20032;-73
2022/07/20 08:59:10;;;;;;;14.27;5.35;;;;;;;32.78;27.41;101364.19;5009615;28;20048;-71
2022/07/20 09:01:59;;;;;;;16.52;5.32;;;;;;;32.77;27.59;101356.91;5005308;28;20473;-69
2022/07/20 09:04:25;;;;;;;16.30;4.75;;;;;;;33.17;27.86;101350.88;5020782;28;20032;-72
2022/07/20 09:06:50;;;;;;;10.70;5.72;;;;;;;32.93;27.97;101355.66;5025269;28;20026;-71
2022/07/20 09:09:17;;;;;;;12.05;4.47;;;;;;;32.91;28.10;101352.31;5006896;28;20032;-72
2022/07/20 09:11:43;;;;;;;12.65;4.90;;;;;;;33.02;27.50;101351.06;4992403;28;20026;-70
2022/07/20 09:14:09;;;;;;;11.55;5.03;;;;;;;33.14;27.81;101345.88;5025201;28;20108;-72
2022/07/20 09:16:43;;;;;;;11.35;5.00;;;;;;;33.35;27.29;101346.47;5007221;28;20056;-69
2022/07/20 09:19:10;;;;;;;18.40;5.00;;;;;;;33.59;26.63;101346.47;5024028;28;20057;-72
2022/07/20 09:21:36;;;;;;;12.00;4.90;;;;;;;33.75;26.56;101347.91;5026096;28;20033;-70
2022/07/20 09:24:06;;;;;;;17.55;5.68;;;;;;;33.53;26.68;101342.06;5023245;28;20042;-71
2022/07/20 09:26:33;;;;;;;14.43;5.68;;;;;;;33.84;27.00;101348.06;5007134;28;20071;-72
2022/07/20 09:29:01;;;;;;;18.08;6.28;;;;;;;34.10;26.08;101345.72;5000484;28;20033;-72
2022/07/20 09:31:30;;;;;;;17.30;5.00;;;;;;;34.06;25.92;101339.06;5017831;28;20014;-72
2022/07/20 09:33:59;;;;;;;22.33;5.47;;;;;;;34.65;25.76;101337.53;4994211;28;20067;-71
2022/07/20 09:36:27;;;;;;;19.08;5.97;;;;;;;34.61;25.51;101339.28;5007124;28;20034;-70
2022/07/20 09:38:53;;;;;;;19.85;6.20;;;;;;;35.07;25.27;101349.69;5010031;28;20104;-71
2022/07/20 09:41:31;;;;;;;21.13;5.93;;;;;;;34.91;25.73;101349.16;5011949;28;20110;-72
2022/07/20 09:43:59;;;;;;;22.40;6.75;;;;;;;35.04;25.23;101345.53;5036969;28;20025;-72
2022/07/20 09:46:30;;;;;;;13.63;7.22;;;;;;;34.87;25.27;101341.63;5049149;28;20416;-72
2022/07/20 09:49:02;;;;;;;24.58;6.80;;;;;;;35.30;25.07;101351.47;5031699;28;20016;-71
2022/07/20 09:51:34;;;;;;;21.30;5.95;;;;;;;35.68;24.72;101345.63;5048576;28;20017;-72
2022/07/20 09:54:04;;;;;;;11.63;5.57;;;;;;;35.59;25.31;101341.88;5031619;28;20049;-71
2022/07/20 09:56:31;;;;;;;15.13;6.20;;;;;;;35.97;24.77;101342.44;5049344;28;20020;-72
2022/07/20 09:58:59;;;;;;;12.43;5.32;;;;;;;35.27;25.64;101352.09;5028127;28;20260;-72
2022/07/20 10:01:28;;;;;;;15.35;5.78;;;;;;;35.46;25.03;101348.38;5028387;28;20025;-70
2022/07/20 10:03:57;;;;;;;10.90;6.03;;;;;;;35.96;24.05;101357.69;5012775;28;20133;-73
2022/07/20 10:06:25;;;;;;;19.20;6.10;;;;;;;36.29;24.37;101341.38;5011750;28;20029;-74
2022/07/20 10:08:51;;;;;;;12.88;5.82;;;;;;;36.34;24.16;101346.88;5011392;28;20075;-71
2022/07/20 10:11:18;;;;;;;17.17;6.18;;;;;;;36.27;23.91;101340.88;5013883;28;20021;-72
2022/07/20 10:13:45;;;;;;;12.82;5.40;;;;;;;36.51;23.86;101339.72;5009526;28;20030;-72
2022/07/20 10:16:16;;;;;;;21.90;4.97;;;;;;;36.22;24.07;101335.34;5010000;28;20025;-71
2022/07/20 10:18:45;;;;;;;12.27;5.50;;;;;;;36.25;23.89;101340.34;5029819;28;20013;-72
2022/07/20 10:21:46;;;;;;;11.57;4.47;;;;;;;36.68;23.66;101328.53;5009287;28;20018;-71
2022/07/20 10:24:31;;;;;;;20.45;5.25;;;;;;;36.65;24.02;101323.56;5006884;28;20025;-70
2022/07/20 10:27:03;;;;;;;9.85;4.65;;;;;;;36.48;23.92;101323.44;5013503;28;20029;-71
2022/07/20 10:29:44;;;;;;;18.83;6.07;;;;;;;36.57;24.00;101315.84;5029973;28;20030;-70
2022/07/20 10:32:09;;;;;;;36.45;7.60;;;;;;;37.15;23.97;101320.47;5028213;28;20025;-70
2022/07/20 10:34:35;;;;;;;27.23;6.38;;;;;;;37.59;23.63;101318.63;5029541;28;20150;-72
2022/07/20 10:37:23;;;;;;;13.65;4.78;;;;;;;37.45;22.91;101313.13;5030107;28;20030;-72
2022/07/20 10:39:49;;;;;;;15.30;4.63;;;;;;;37.55;21.23;101317.59;5013621;28;20025;-72
2022/07/20 10:42:48;;;;;;;11.85;5.07;;;;;;;37.82;21.88;101323.00;5030016;28;20033;-72
2022/07/20 10:45:13;;;;;;;15.98;5.07;;;;;;;37.65;22.07;101317.31;5030824;28;20029;-72
2022/07/20 10:47:42;;;;;;;20.02;5.32;;;;;;;38.12;22.08;101317.50;5026334;28;20094;-72
2022/07/20 10:50:09;;;;;;;9.98;4.32;;;;;;;37.99;21.92;101323.00;5009197;28;20026;-72
2022/07/20 10:52:35;;;;;;;16.85;4.65;;;;;;;38.19;21.71;101309.34;4994048;28;20025;-72
2022/07/20 10:55:03;;;;;;;14.10;5.10;;;;;;;38.50;21.77;101315.63;4992626;28;20095;-73
2022/07/20 10:57:29;;;;;;;18.88;5.32;;;;;;;38.52;22.07;101324.59;5005970;28;20506;-70
2022/07/20 11:00:12;;;;;;;16.15;6.35;;;;;;;38.65;21.29;101321.91;5014879;28;20029;-72
2022/07/20 11:02:38;;;;;;;14.85;5.35;;;;;;;38.63;21.12;101319.44;5017556;28;20025;-71
2022/07/20 11:05:04;;;;;;;15.70;5.55;;;;;;;39.23;21.11;101314.72;5035232;28;20018;-71
2022/07/20 11:07:34;;;;;;;11.57;5.13;;;;;;;39.44;20.90;101315.59;5018724;28;20086;-72
2022/07/20 11:10:20;;;;;;;10.40;4.43;;;;;;;38.87;20.14;101304.72;5033975;28;20032;-73
2022/07/20 11:13:00;;;;;;;33.00;5.15;;;;;;;38.84;19.83;101301.72;5033881;28;20021;-72
2022/07/20 11:15:39;;;;;;;8.32;4.00;;;;;;;39.55;18.41;101305.53;5018236;28;20022;-72
2022/07/20 11:18:10;;;;;;;8.30;3.80;;;;;;;39.95;18.18;101302.22;5033281;28;20053;-72
2022/07/20 11:20:44;;;;;;;13.27;4.28;;;;;;;39.99;17.99;101291.84;5033018;28;20021;-72
2022/07/20 11:23:09;;;;;;;25.42;5.07;;;;;;;40.26;19.00;101287.59;5017224;28;20112;-72